Time,TemperatureF,DewpointF,PressureIn,WindDirection,WindDirectionDegrees,WindSpeedMPH,WindSpeedGustMPH,Humidity,HourlyPrecipIn,Conditions,Clouds,dailyrainin,SoftwareType,DateUTC
2015-01-28 00:23:00,11.0,9.0,30.29,North,359,0.0,0.0,91,0.00,,,0.00,,2015-01-28 05:23:00,
2015-01-28 00:43:00,11.0,9.0,30.29,North,358,0.0,0.0,92,0.00,,,0.00,,2015-01-28 05:43:00,
2015-01-28 00:52:00,10.0,8.0,30.28,North,359,0.0,0.0,91,0.00,,,0.00,,2015-01-28 05:52:00,
2015-01-28 01:12:00,10.0,8.0,30.29,North,359,0.0,0.0,91,0.00,,,0.00,,2015-01-28 06:12:00,
2015-01-28 01:22:00,10.0,8.0,30.29,North,358,0.0,0.0,92,0.00,,,0.00,,2015-01-28 06:22:00,
2015-01-28 01:42:00,10.0,8.0,30.29,North,358,0.0,0.0,92,0.00,,,0.00,,2015-01-28 06:42:00,
2015-01-28 01:52:00,9.0,7.0,30.29,North,358,0.0,0.0,91,0.00,,,0.00,,2015-01-28 06:52:00,
2015-01-28 02:12:00,9.0,7.0,30.29,North,359,0.0,0.0,92,0.00,,,0.00,,2015-01-28 07:12:00,
2015-01-28 02:23:00,9.0,7.0,30.30,North,358,0.0,0.0,92,0.00,,,0.00,,2015-01-28 07:23:00,
2015-01-28 02:42:00,9.0,7.0,30.31,North,359,0.0,0.0,91,0.00,,,0.00,,2015-01-28 07:42:00,
2015-01-28 02:52:00,9.0,7.0,30.31,North,358,0.0,0.0,93,0.00,,,0.00,,2015-01-28 07:52:00,
2015-01-28 03:12:00,9.0,7.0,30.32,North,358,0.0,0.0,92,0.00,,,0.00,,2015-01-28 08:12:00,
2015-01-28 03:22:00,9.0,7.0,30.33,North,359,0.0,0.0,92,0.00,,,0.00,,2015-01-28 08:22:00,
2015-01-28 03:42:00,8.0,6.0,30.33,North,359,0.0,0.0,91,0.00,,,0.00,,2015-01-28 08:42:00,
2015-01-28 03:52:00,9.0,7.0,30.33,North,359,0.0,0.0,92,0.00,,,0.00,,2015-01-28 08:52:00,
2015-01-28 04:12:00,9.0,7.0,30.34,North,359,0.0,0.0,91,0.00,,,0.00,,2015-01-28 09:12:00,
2015-01-28 04:22:00,8.0,6.0,30.34,North,358,0.0,0.0,91,0.00,,,0.00,,2015-01-28 09:22:00,
2015-01-28 04:44:00,8.0,6.0,30.34,North,359,0.0,0.0,92,0.00,,,0.00,,2015-01-28 09:44:00,
2015-01-28 04:53:00,9.0,7.0,30.35,North,358,0.0,0.0,92,0.00,,,0.00,,2015-01-28 09:53:00,
2015-01-28 05:13:00,9.0,7.0,30.35,North,359,0.0,0.0,92,0.00,,,0.00,,2015-01-28 10:13:00,
2015-01-28 05:23:00,9.0,7.0,30.36,North,358,0.0,0.0,92,0.00,,,0.00,,2015-01-28 10:23:00,
2015-01-28 05:53:00,9.0,7.0,30.37,North,358,0.0,0.0,92,0.00,,,0.00,,2015-01-28 10:53:00,
2015-01-28 06:13:00,9.0,7.0,30.37,North,358,0.0,0.0,92,0.00,,,0.00,,2015-01-28 11:13:00,
2015-01-28 06:23:00,9.0,7.0,30.37,North,359,0.0,0.0,91,0.00,,,0.00,,2015-01-28 11:23:00,
2015-01-28 06:42:00,8.0,6.0,30.38,North,359,0.0,0.0,91,0.00,,,0.00,,2015-01-28 11:42:00,
2015-01-28 06:52:00,9.0,7.0,30.39,North,358,0.0,0.0,92,0.00,,,0.00,,2015-01-28 11:52:00,
2015-01-28 07:12:00,9.0,7.0,30.39,North,358,0.0,0.0,92,0.00,,,0.00,,2015-01-28 12:12:00,
2015-01-28 07:22:00,9.0,7.0,30.39,North,359,0.0,0.0,91,0.00,,,0.00,,2015-01-28 12:22:00,
2015-01-28 07:42:00,8.0,6.0,30.39,North,358,0.0,0.0,91,0.00,,,0.00,,2015-01-28 12:42:00,
2015-01-28 07:52:00,9.0,7.0,30.39,North,359,0.0,0.0,92,0.00,,,0.00,,2015-01-28 12:52:00,
2015-01-28 08:22:00,9.0,7.0,30.40,North,359,0.0,0.0,92,0.00,,,0.00,,2015-01-28 13:22:00,
2015-01-28 08:42:00,9.0,7.0,30.41,North,359,0.0,0.0,91,0.00,,,0.00,,2015-01-28 13:42:00,
2015-01-28 08:52:00,9.0,7.0,30.41,North,358,0.0,0.0,91,0.00,,,0.00,,2015-01-28 13:52:00,
2015-01-28 09:12:00,13.0,11.0,30.41,North,358,0.0,0.0,93,0.00,,,0.00,,2015-01-28 14:12:00,
2015-01-28 09:22:00,16.0,14.0,30.41,SSE,148,0.0,0.0,93,0.00,,,0.00,,2015-01-28 14:22:00,
2015-01-28 09:42:00,18.0,16.0,30.42,SE,126,0.0,0.0,92,0.00,,,0.00,,2015-01-28 14:42:00,
2015-01-28 09:52:00,19.0,16.0,30.42,SE,125,0.0,1.0,89,0.00,,,0.00,,2015-01-28 14:52:00,
2015-01-28 10:22:00,20.0,16.0,30.43,ESE,121,0.0,2.0,83,0.00,,,0.00,,2015-01-28 15:22:00,
2015-01-28 10:54:00,23.0,17.0,30.42,ESE,121,1.0,4.0,77,0.00,,,0.00,,2015-01-28 15:54:00,
2015-01-28 11:14:00,24.0,18.0,30.43,ESE,105,0.0,3.0,76,0.00,,,0.00,,2015-01-28 16:14:00,
2015-01-28 11:23:00,25.0,18.0,30.43,ESE,119,0.0,4.0,73,0.00,,,0.00,,2015-01-28 16:23:00,
2015-01-28 11:44:00,26.0,18.0,30.44,SE,124,0.0,2.0,70,0.00,,,0.00,,2015-01-28 16:44:00,
2015-01-28 11:53:00,26.0,18.0,30.43,SE,129,0.0,3.0,71,0.00,,,0.00,,2015-01-28 16:53:00,
2015-01-28 12:13:00,27.0,18.0,30.42,SE,128,2.0,3.0,69,0.01,,,0.01,,2015-01-28 17:13:00,
2015-01-28 12:22:00,27.0,19.0,30.42,SE,124,0.0,3.0,70,0.01,,,0.01,,2015-01-28 17:22:00,
2015-01-28 12:43:00,28.0,19.0,30.41,ESE,117,1.0,4.0,68,0.01,,,0.01,,2015-01-28 17:43:00,
2015-01-28 12:53:00,28.0,18.0,30.40,SSE,148,0.0,3.0,66,0.01,,,0.01,,2015-01-28 17:53:00,
2015-01-28 13:23:00,29.0,19.0,30.39,SSE,165,0.0,4.0,65,0.00,,,0.01,,2015-01-28 18:23:00,
2015-01-28 13:42:00,30.0,19.0,30.38,SE,134,1.0,5.0,63,0.00,,,0.01,,2015-01-28 18:42:00,
2015-01-28 13:53:00,30.0,19.0,30.37,SE,124,0.0,5.0,63,0.00,,,0.01,,2015-01-28 18:53:00,
2015-01-28 14:24:00,29.0,18.0,30.35,ESE,118,2.0,7.0,62,0.00,,,0.01,,2015-01-28 19:24:00,
2015-01-28 14:42:00,30.0,19.0,30.34,SE,135,1.0,6.0,64,0.00,,,0.01,,2015-01-28 19:42:00,
2015-01-28 14:52:00,31.0,21.0,30.33,SE,140,2.0,6.0,65,0.00,,,0.01,,2015-01-28 19:52:00,
2015-01-28 15:22:00,31.0,20.0,30.32,SE,130,1.0,9.0,64,0.00,,,0.01,,2015-01-28 20:22:00,
2015-01-28 15:52:00,33.0,21.0,30.32,SE,138,3.0,6.0,61,0.00,,,0.01,,2015-01-28 20:52:00,
2015-01-28 16:12:00,32.0,20.0,30.32,ESE,123,2.0,5.0,61,0.00,,,0.01,,2015-01-28 21:12:00,
2015-01-28 16:22:00,32.0,21.0,30.30,SE,126,2.0,8.0,63,0.00,,,0.01,,2015-01-28 21:22:00,
2015-01-28 16:44:00,32.0,21.0,30.31,ESE,104,3.0,7.0,63,0.00,,,0.01,,2015-01-28 21:44:00,
2015-01-28 16:53:00,33.0,22.0,30.31,SE,129,0.0,5.0,64,0.00,,,0.01,,2015-01-28 21:53:00,
2015-01-28 17:23:00,31.0,21.0,30.30,SE,129,1.0,4.0,66,0.00,,,0.01,,2015-01-28 22:23:00,
2015-01-28 17:43:00,31.0,22.0,30.30,SE,124,0.0,4.0,68,0.00,,,0.01,,2015-01-28 22:43:00,
2015-01-28 17:53:00,30.0,21.0,30.30,ESE,116,0.0,4.0,70,0.00,,,0.01,,2015-01-28 22:53:00,
2015-01-28 18:23:00,29.0,21.0,30.30,ESE,115,0.0,3.0,73,0.00,,,0.01,,2015-01-28 23:23:00,
2015-01-28 18:52:00,28.0,21.0,30.29,SE,124,1.0,3.0,75,0.00,,,0.01,,2015-01-28 23:52:00,
2015-01-28 19:13:00,28.0,21.0,30.28,SE,136,0.0,2.0,76,0.00,,,0.01,,2015-01-29 00:13:00,
2015-01-28 19:22:00,27.0,20.0,30.28,ESE,119,0.0,3.0,76,0.00,,,0.01,,2015-01-29 00:22:00,
2015-01-28 19:43:00,27.0,20.0,30.27,SE,124,1.0,3.0,75,0.00,,,0.01,,2015-01-29 00:43:00,
2015-01-28 19:52:00,28.0,21.0,30.28,ESE,115,2.0,5.0,75,0.00,,,0.01,,2015-01-29 00:52:00,
2015-01-28 20:12:00,28.0,21.0,30.28,SE,125,1.0,5.0,74,0.00,,,0.01,,2015-01-29 01:12:00,
2015-01-28 20:22:00,28.0,21.0,30.28,ESE,123,2.0,5.0,74,0.00,,,0.01,,2015-01-29 01:22:00,
2015-01-28 20:42:00,28.0,21.0,30.27,ESE,115,1.0,6.0,75,0.00,,,0.01,,2015-01-29 01:42:00,
2015-01-28 20:52:00,28.0,21.0,30.26,SE,128,2.0,5.0,75,0.00,,,0.01,,2015-01-29 01:52:00,